Time;durP1;ratioP1;P1;durP2;ratioP2;P2;SDS_P1;SDS_P2;PMS_P1;PMS_P2;Temp;Humidity;BMP_temperature;BMP_pressure;BME280_temperature;BME280_humidity;BME280_pressure;Samples;Min_cycle;Max_cycle;Signal;HPM_P1;HPM_P2
2024/02/14 00:01:08;;;;;;;9.52;3.00;;;7.70;99.90;;;;;;4946545;28;20399;-62
2024/02/14 00:03:34;;;;;;;7.93;3.17;;;7.70;99.90;;;;;;4948149;29;20019;-62
2024/02/14 00:06:00;;;;;;;9.20;3.17;;;7.70;99.90;;;;;;4949188;29;20650;-61
2024/02/14 00:08:26;;;;;;;9.27;2.80;;;7.70;99.90;;;;;;4947950;29;20506;-61
2024/02/14 00:10:51;;;;;;;7.20;2.85;;;7.60;99.90;;;;;;4949058;29;20034;-61
2024/02/14 00:13:20;;;;;;;8.38;2.60;;;7.60;99.90;;;;;;4948185;29;20027;-61
2024/02/14 00:15:46;;;;;;;8.57;3.15;;;7.60;99.90;;;;;;4946213;29;20019;-61
2024/02/14 00:18:12;;;;;;;11.40;3.53;;;7.60;99.90;;;;;;4948171;28;20023;-61
2024/02/14 00:20:39;;;;;;;8.70;3.38;;;7.60;99.90;;;;;;4946671;28;20122;-61
2024/02/14 00:23:04;;;;;;;11.32;3.55;;;7.60;99.90;;;;;;4946699;29;20035;-61
2024/02/14 00:25:30;;;;;;;6.93;2.72;;;7.60;99.90;;;;;;4947604;28;20025;-61
2024/02/14 00:27:56;;;;;;;8.27;2.90;;;7.70;99.90;;;;;;4947001;29;20031;-61
2024/02/14 00:30:23;;;;;;;6.88;2.72;;;7.60;99.90;;;;;;4945224;29;20031;-61
2024/02/14 00:32:48;;;;;;;8.93;2.67;;;7.60;99.90;;;;;;4948255;29;20383;-61
2024/02/14 00:35:14;;;;;;;7.18;2.72;;;7.60;99.90;;;;;;4945770;28;20023;-61
2024/02/14 00:37:39;;;;;;;9.40;2.65;;;7.70;99.90;;;;;;4930962;29;20027;-61
2024/02/14 00:40:06;;;;;;;9.00;2.55;;;7.70;99.90;;;;;;4947542;29;20102;-61
2024/02/14 00:42:31;;;;;;;6.70;2.33;;;7.60;99.90;;;;;;4948695;28;20030;-61
2024/02/14 00:44:57;;;;;;;6.93;2.30;;;7.70;99.90;;;;;;4952073;29;20031;-61
2024/02/14 00:47:22;;;;;;;6.93;2.20;;;7.80;99.90;;;;;;4951366;29;20041;-61
2024/02/14 00:49:48;;;;;;;8.48;2.58;;;7.90;99.90;;;;;;4952074;29;20502;-61
2024/02/14 00:52:14;;;;;;;8.98;3.20;;;7.80;99.90;;;;;;4949650;29;20025;-61
2024/02/14 00:54:39;;;;;;;6.10;2.13;;;7.90;99.90;;;;;;4950364;29;20011;-61
2024/02/14 00:57:05;;;;;;;5.80;2.33;;;7.90;99.90;;;;;;4952308;29;20511;-61
2024/02/14 00:59:31;;;;;;;9.10;2.58;;;7.80;99.90;;;;;;4950745;28;20022;-61
2024/02/14 01:01:56;;;;;;;6.15;2.05;;;7.80;99.90;;;;;;4951767;28;20443;-61
2024/02/14 01:04:22;;;;;;;9.43;2.92;;;7.70;99.90;;;;;;4950822;28;20114;-61
2024/02/14 01:06:49;;;;;;;6.55;2.15;;;7.60;99.90;;;;;;4935393;29;20527;-61
2024/02/14 01:09:15;;;;;;;6.57;2.10;;;7.70;99.90;;;;;;4949414;29;20024;-61
2024/02/14 01:11:40;;;;;;;7.32;2.30;;;7.60;99.90;;;;;;4950249;28;20442;-61
2024/02/14 01:14:06;;;;;;;12.05;2.72;;;7.60;99.90;;;;;;4946946;29;20090;-61
2024/02/14 01:16:32;;;;;;;6.68;2.30;;;7.60;99.90;;;;;;4948453;28;20102;-61
2024/02/14 01:18:57;;;;;;;6.13;2.10;;;7.70;99.90;;;;;;4950473;28;20460;-61
2024/02/14 01:21:23;;;;;;;6.88;2.38;;;7.70;99.90;;;;;;4949935;29;20027;-61
2024/02/14 01:23:48;;;;;;;6.80;2.28;;;7.70;99.90;;;;;;4951642;29;20475;-61
2024/02/14 01:26:14;;;;;;;6.30;2.20;;;7.60;99.90;;;;;;4952168;29;20026;-61
2024/02/14 01:28:40;;;;;;;8.20;2.08;;;7.70;99.90;;;;;;4949068;28;20387;-62
2024/02/14 01:31:05;;;;;;;5.55;1.92;;;7.60;99.90;;;;;;4935313;29;20027;-61
2024/02/14 01:33:31;;;;;;;7.65;2.45;;;7.50;99.90;;;;;;4948748;29;20368;-61
2024/02/14 01:35:57;;;;;;;7.72;2.47;;;7.50;99.90;;;;;;4950065;29;20028;-62
2024/02/14 01:38:23;;;;;;;5.70;1.90;;;7.40;99.90;;;;;;4949340;29;20058;-61
2024/02/14 01:40:49;;;;;;;6.88;2.33;;;7.40;99.90;;;;;;4951457;29;20023;-62
2024/02/14 01:43:14;;;;;;;6.90;2.38;;;7.40;99.90;;;;;;4951245;29;20387;-62
2024/02/14 01:45:40;;;;;;;8.07;2.20;;;7.50;99.90;;;;;;4948981;29;20027;-62
2024/02/14 01:48:07;;;;;;;9.95;2.15;;;7.50;99.90;;;;;;4949502;29;20023;-62
2024/02/14 01:50:35;;;;;;;8.27;1.83;;;7.50;99.90;;;;;;4950211;29;20391;-61
2024/02/14 01:53:02;;;;;;;5.72;2.10;;;7.50;99.90;;;;;;4949115;29;20031;-61
2024/02/14 01:55:28;;;;;;;7.18;2.15;;;7.50;99.90;;;;;;4950294;28;20020;-61
2024/02/14 01:57:54;;;;;;;8.68;2.50;;;7.40;99.90;;;;;;4950988;29;20324;-62
2024/02/14 02:00:20;;;;;;;5.90;2.08;;;7.50;99.90;;;;;;4950797;29;20356;-62
2024/02/14 02:02:49;;;;;;;8.60;2.50;;;7.50;99.90;;;;;;4950811;29;20034;-62
2024/02/14 02:05:15;;;;;;;6.70;2.03;;;7.60;99.90;;;;;;4950223;29;20038;-61
2024/02/14 02:07:42;;;;;;;6.15;1.80;;;7.60;99.90;;;;;;4933086;29;20042;-61
2024/02/14 02:10:11;;;;;;;5.90;2.25;;;7.60;99.90;;;;;;4950605;29;20394;-61
2024/02/14 02:12:38;;;;;;;6.95;2.50;;;7.60;99.90;;;;;;4950804;29;20082;-61
2024/02/14 02:15:06;;;;;;;6.03;2.15;;;7.60;99.90;;;;;;4950626;29;20486;-62
2024/02/14 02:17:34;;;;;;;6.38;2.15;;;7.60;99.90;;;;;;4950514;29;20025;-61
2024/02/14 02:20:00;;;;;;;5.47;2.33;;;7.60;99.90;;;;;;4951097;28;20055;-62
2024/02/14 02:22:26;;;;;;;7.15;2.17;;;7.60;99.90;;;;;;4950498;29;20043;-62
2024/02/14 02:24:53;;;;;;;7.13;2.55;;;7.60;99.90;;;;;;4950761;29;20620;-60
2024/02/14 02:27:18;;;;;;;5.55;2.10;;;7.60;99.90;;;;;;4933243;29;20034;-62
2024/02/14 02:29:44;;;;;;;6.50;2.00;;;7.70;99.90;;;;;;4950348;29;20031;-61
2024/02/14 02:32:09;;;;;;;6.72;2.35;;;7.70;99.90;;;;;;4952052;29;20430;-62
2024/02/14 02:34:38;;;;;;;6.10;2.30;;;7.70;99.90;;;;;;4951118;29;20027;-62
2024/02/14 02:37:07;;;;;;;6.32;2.20;;;7.70;99.90;;;;;;4952466;29;20579;-61
2024/02/14 02:39:33;;;;;;;6.25;2.38;;;7.80;99.90;;;;;;4951185;29;20019;-61
2024/02/14 02:41:59;;;;;;;7.35;2.10;;;7.70;99.90;;;;;;4950107;29;20015;-61
2024/02/14 02:44:25;;;;;;;7.55;2.38;;;7.80;99.90;;;;;;4950858;29;20732;-62
2024/02/14 02:46:51;;;;;;;6.00;2.33;;;7.70;99.90;;;;;;4951672;29;20020;-61
2024/02/14 02:49:16;;;;;;;7.32;2.20;;;7.80;99.90;;;;;;4951496;29;20077;-61
2024/02/14 02:51:42;;;;;;;6.90;2.20;;;7.80;99.90;;;;;;4949826;29;20474;-61
2024/02/14 02:54:08;;;;;;;5.35;1.98;;;7.90;99.90;;;;;;4951294;29;20102;-61
2024/02/14 02:56:34;;;;;;;10.88;2.67;;;7.80;99.90;;;;;;4950980;29;20114;-61
2024/02/14 02:59:03;;;;;;;5.40;1.70;;;7.80;99.90;;;;;;4950824;29;20673;-61
2024/02/14 03:01:34;;;;;;;6.60;2.25;;;7.80;99.90;;;;;;4950493;29;20023;-61
2024/02/14 03:04:00;;;;;;;6.35;2.50;;;7.80;99.90;;;;;;4949436;29;20042;-62
2024/02/14 03:06:26;;;;;;;7.15;2.13;;;7.90;99.90;;;;;;4950292;28;20031;-61
2024/02/14 03:08:53;;;;;;;10.55;2.45;;;7.90;99.90;;;;;;4951058;29;20027;-61
2024/02/14 03:11:19;;;;;;;6.47;1.95;;;7.90;99.90;;;;;;4950894;29;20026;-61
2024/02/14 03:13:48;;;;;;;5.65;2.13;;;7.90;99.90;;;;;;4950978;29;20428;-61
2024/02/14 03:16:14;;;;;;;6.30;2.60;;;7.90;99.90;;;;;;4949865;29;20031;-61
2024/02/14 03:18:40;;;;;;;5.35;1.85;;;7.90;99.90;;;;;;4949939;28;20042;-61
2024/02/14 03:21:06;;;;;;;5.82;2.28;;;7.90;99.90;;;;;;4949716;29;20027;-61
2024/02/14 03:23:32;;;;;;;7.85;2.45;;;7.90;99.90;;;;;;4950137;29;20027;-61
2024/02/14 03:25:57;;;;;;;5.60;1.95;;;7.90;99.90;;;;;;4951355;29;20127;-61
2024/02/14 03:28:23;;;;;;;8.23;2.30;;;7.90;99.90;;;;;;4950452;29;20030;-61
2024/02/14 03:30:49;;;;;;;7.25;2.17;;;7.90;99.90;;;;;;4951182;29;20118;-61
2024/02/14 03:33:15;;;;;;;6.70;2.08;;;8.00;99.90;;;;;;4948114;29;20478;-61
2024/02/14 03:35:41;;;;;;;5.93;2.10;;;7.90;99.90;;;;;;4950414;29;20078;-61
2024/02/14 03:38:08;;;;;;;5.70;1.90;;;7.90;99.90;;;;;;4950762;29;20030;-61
2024/02/14 03:40:35;;;;;;;7.63;2.63;;;7.90;99.90;;;;;;4950331;29;20066;-61
2024/02/14 03:43:02;;;;;;;6.97;2.67;;;7.80;99.90;;;;;;4950708;29;20055;-61
2024/02/14 03:45:29;;;;;;;5.97;2.03;;;7.80;99.90;;;;;;4933183;29;20035;-61
2024/02/14 03:47:56;;;;;;;6.38;2.63;;;7.80;99.90;;;;;;4948299;29;20094;-61
2024/02/14 03:50:22;;;;;;;6.88;2.70;;;7.80;99.90;;;;;;4949180;29;20098;-61
2024/02/14 03:52:48;;;;;;;5.60;2.10;;;7.70;99.90;;;;;;4948826;29;20035;-61
2024/02/14 03:55:17;;;;;;;8.57;2.88;;;7.70;99.90;;;;;;4947240;29;20379;-61
2024/02/14 03:57:45;;;;;;;6.13;2.35;;;7.70;99.90;;;;;;4950158;29;20031;-61
2024/02/14 04:00:11;;;;;;;7.53;2.90;;;7.70;99.90;;;;;;4950856;29;20019;-61
2024/02/14 04:02:37;;;;;;;7.95;2.80;;;7.80;99.90;;;;;;4950468;29;20031;-61
2024/02/14 04:05:03;;;;;;;6.70;2.63;;;7.80;99.90;;;;;;4950540;29;20023;-61
2024/02/14 04:07:29;;;;;;;6.45;2.40;;;7.80;99.90;;;;;;4950105;29;20051;-61
2024/02/14 04:09:55;;;;;;;8.43;2.60;;;7.80;99.90;;;;;;4932881;29;20050;-61
2024/02/14 04:12:21;;;;;;;8.35;2.60;;;7.80;99.90;;;;;;4948268;29;20456;-61
2024/02/14 04:14:46;;;;;;;6.50;2.45;;;7.80;99.90;;;;;;4950441;29;20514;-61
2024/02/14 04:17:12;;;;;;;6.60;2.47;;;7.80;99.90;;;;;;4952272;28;20021;-61
2024/02/14 04:19:38;;;;;;;7.10;2.65;;;7.80;99.90;;;;;;4953736;28;20047;-61
2024/02/14 04:22:04;;;;;;;4.88;2.00;;;7.90;99.90;;;;;;4953495;29;20036;-61
2024/02/14 04:24:29;;;;;;;7.53;3.00;;;7.90;99.90;;;;;;4953724;29;20110;-61
2024/02/14 04:26:56;;;;;;;6.22;2.60;;;7.90;99.90;;;;;;4954635;29;20101;-61
2024/02/14 04:29:23;;;;;;;7.07;2.35;;;7.80;99.90;;;;;;4953603;29;20050;-61
2024/02/14 04:31:49;;;;;;;7.68;2.45;;;7.80;99.90;;;;;;4954473;29;20494;-61
2024/02/14 04:34:14;;;;;;;6.80;2.40;;;7.80;99.90;;;;;;4954205;29;20038;-61
2024/02/14 04:36:40;;;;;;;6.05;2.40;;;7.80;99.90;;;;;;4953970;29;20026;-61
2024/02/14 04:39:07;;;;;;;6.47;2.42;;;7.80;99.90;;;;;;4953912;29;20106;-61
2024/02/14 04:41:37;;;;;;;6.63;2.22;;;7.90;99.90;;;;;;4953990;29;20027;-61
2024/02/14 04:44:08;;;;;;;6.45;2.45;;;7.90;99.90;;;;;;4954048;29;20023;-61
2024/02/14 04:46:35;;;;;;;5.93;2.40;;;8.00;99.90;;;;;;4953997;29;20039;-61
2024/02/14 04:49:04;;;;;;;6.75;2.83;;;7.90;99.90;;;;;;4954059;29;20020;-61
2024/02/14 04:51:31;;;;;;;7.35;2.90;;;8.10;99.90;;;;;;4951252;29;20557;-61
2024/02/14 04:54:00;;;;;;;7.93;3.28;;;8.10;99.90;;;;;;4953378;29;20050;-61
2024/02/14 04:56:26;;;;;;;7.67;3.03;;;8.10;99.90;;;;;;4953861;29;20012;-61
2024/02/14 04:58:54;;;;;;;9.18;2.85;;;8.10;99.90;;;;;;4953712;29;20271;-62
2024/02/14 05:01:20;;;;;;;8.57;3.72;;;8.10;99.90;;;;;;4953641;29;20019;-62
2024/02/14 05:03:46;;;;;;;9.25;4.10;;;8.10;99.90;;;;;;4953410;29;20479;-62
2024/02/14 05:06:11;;;;;;;8.40;3.58;;;8.20;99.90;;;;;;4954070;29;20032;-62
2024/02/14 05:08:37;;;;;;;6.50;2.67;;;8.10;99.90;;;;;;4952833;29;20027;-62
2024/02/14 05:11:03;;;;;;;10.40;4.55;;;8.00;99.90;;;;;;4954023;29;20050;-62
2024/02/14 05:13:30;;;;;;;9.07;3.80;;;8.00;99.90;;;;;;4952615;29;20035;-62
2024/02/14 05:15:56;;;;;;;11.52;3.97;;;7.90;99.90;;;;;;4953641;29;20039;-62
2024/02/14 05:18:21;;;;;;;10.60;3.83;;;8.00;99.90;;;;;;4952278;28;20486;-62
2024/02/14 05:20:47;;;;;;;11.18;4.93;;;7.90;99.90;;;;;;4953517;29;20039;-62
2024/02/14 05:23:13;;;;;;;9.88;4.05;;;7.90;99.90;;;;;;4949838;29;20031;-62
2024/02/14 05:25:39;;;;;;;10.10;4.32;;;7.90;99.90;;;;;;4949120;29;20102;-62
2024/02/14 05:28:05;;;;;;;11.43;4.18;;;7.90;99.90;;;;;;4951368;28;20046;-62
2024/02/14 05:30:31;;;;;;;7.68;3.20;;;7.90;99.90;;;;;;4948453;29;20027;-62
2024/02/14 05:32:57;;;;;;;8.70;3.88;;;8.00;99.90;;;;;;4932602;29;20027;-61
2024/02/14 05:35:23;;;;;;;18.90;4.50;;;8.00;99.90;;;;;;4947271;29;20028;-62
2024/02/14 05:37:50;;;;;;;10.02;4.38;;;8.00;99.90;;;;;;4949306;29;20031;-62
2024/02/14 05:40:15;;;;;;;11.32;4.70;;;8.00;99.90;;;;;;4944584;29;20024;-62
2024/02/14 05:42:41;;;;;;;11.50;3.90;;;8.10;99.90;;;;;;4950554;29;20054;-62
2024/02/14 05:45:10;;;;;;;9.65;3.70;;;8.00;99.90;;;;;;4950340;29;20114;-62
2024/02/14 05:47:35;;;;;;;9.73;4.20;;;8.10;99.90;;;;;;4951132;29;20023;-62
2024/02/14 05:50:01;;;;;;;10.27;3.90;;;8.10;99.90;;;;;;4950652;29;20039;-62
2024/02/14 05:52:27;;;;;;;9.88;3.55;;;8.10;99.90;;;;;;4947590;29;20775;-62
2024/02/14 05:54:54;;;;;;;9.13;4.22;;;8.10;99.90;;;;;;4935737;29;20063;-63
2024/02/14 05:57:19;;;;;;;8.40;3.40;;;8.10;99.90;;;;;;4952627;29;20019;-62
2024/02/14 05:59:45;;;;;;;9.70;4.35;;;8.10;99.90;;;;;;4952149;29;20023;-62
2024/02/14 06:02:10;;;;;;;11.43;4.47;;;8.00;99.90;;;;;;4948917;29;20039;-62
2024/02/14 06:04:36;;;;;;;9.18;3.42;;;8.10;99.90;;;;;;4951082;29;20042;-62
2024/02/14 06:07:02;;;;;;;10.27;4.35;;;8.00;99.90;;;;;;4953148;29;20035;-61
2024/02/14 06:09:29;;;;;;;11.45;4.60;;;8.00;99.90;;;;;;4951730;29;20030;-61
2024/02/14 06:11:54;;;;;;;10.07;3.90;;;8.00;99.90;;;;;;4948991;29;20102;-61
2024/02/14 06:14:20;;;;;;;13.45;5.15;;;8.00;99.90;;;;;;4952237;29;20110;-61
2024/02/14 06:16:46;;;;;;;9.07;4.05;;;8.00;99.90;;;;;;4943002;29;20019;-61
2024/02/14 06:19:12;;;;;;;11.38;4.53;;;8.10;99.90;;;;;;4952157;28;20075;-61
2024/02/14 06:21:39;;;;;;;10.65;5.07;;;8.10;99.90;;;;;;4949519;29;20557;-61
2024/02/14 06:24:04;;;;;;;11.30;4.00;;;8.10;99.90;;;;;;4950766;29;20058;-61
2024/02/14 06:26:33;;;;;;;9.68;4.50;;;8.10;99.90;;;;;;4950724;28;20059;-61
2024/02/14 06:28:58;;;;;;;10.57;4.75;;;8.00;99.90;;;;;;4950431;29;20510;-61
2024/02/14 06:31:24;;;;;;;10.77;4.88;;;8.10;99.90;;;;;;4938280;29;20020;-61
2024/02/14 06:33:50;;;;;;;15.68;5.25;;;8.00;99.90;;;;;;4950934;29;20471;-60
2024/02/14 06:36:16;;;;;;;10.30;4.70;;;8.00;99.90;;;;;;4940654;29;20431;-61
2024/02/14 06:38:42;;;;;;;9.27;4.03;;;8.00;99.90;;;;;;4948712;29;20054;-61
2024/02/14 06:41:07;;;;;;;13.02;4.63;;;8.00;99.90;;;;;;4942344;28;20034;-61
2024/02/14 06:43:33;;;;;;;10.77;4.35;;;8.00;99.90;;;;;;4949573;29;20844;-61
2024/02/14 06:45:58;;;;;;;8.65;3.60;;;8.20;99.90;;;;;;4948069;29;20126;-61
2024/02/14 06:48:24;;;;;;;11.80;3.83;;;8.10;99.90;;;;;;4949842;29;20078;-61
2024/02/14 06:50:53;;;;;;;11.40;4.32;;;8.10;99.90;;;;;;4947349;29;20109;-60
2024/02/14 06:53:18;;;;;;;11.23;4.15;;;8.10;99.90;;;;;;4933181;29;20051;-61
2024/02/14 06:55:44;;;;;;;10.88;4.63;;;8.20;99.90;;;;;;4951292;29;20136;-61
2024/02/14 06:58:09;;;;;;;9.70;4.30;;;8.20;99.90;;;;;;4949762;29;20551;-61
2024/02/14 07:00:35;;;;;;;11.20;5.13;;;8.10;99.90;;;;;;4948959;29;20055;-60
2024/02/14 07:03:01;;;;;;;10.40;4.88;;;8.20;99.90;;;;;;4951192;29;20169;-60
2024/02/14 07:05:28;;;;;;;9.95;4.53;;;8.30;99.90;;;;;;4935425;29;20082;-61
2024/02/14 07:07:55;;;;;;;13.02;4.47;;;8.20;99.90;;;;;;4950453;28;20035;-62
2024/02/14 07:10:20;;;;;;;11.65;4.88;;;8.20;99.90;;;;;;4949055;29;20035;-63
2024/02/14 07:12:46;;;;;;;11.75;5.38;;;8.20;99.90;;;;;;4950874;29;20091;-63
2024/02/14 07:15:11;;;;;;;10.68;5.20;;;8.20;99.90;;;;;;4950835;29;20032;-63
2024/02/14 07:17:38;;;;;;;11.63;4.80;;;8.20;99.90;;;;;;4950836;29;20102;-62
2024/02/14 07:20:05;;;;;;;11.23;5.43;;;8.30;99.90;;;;;;4950292;28;20383;-62
2024/02/14 07:22:30;;;;;;;11.07;5.45;;;8.20;99.90;;;;;;4948947;29;20058;-62
2024/02/14 07:24:56;;;;;;;12.20;4.93;;;8.30;99.90;;;;;;4947596;29;20399;-62
2024/02/14 07:27:23;;;;;;;12.45;5.57;;;8.30;99.90;;;;;;4931520;29;20023;-62
2024/02/14 07:29:49;;;;;;;11.40;5.32;;;8.20;99.90;;;;;;4945305;29;20371;-62
2024/02/14 07:32:15;;;;;;;13.60;5.70;;;8.30;99.90;;;;;;4948265;29;20031;-62
2024/02/14 07:34:40;;;;;;;12.85;6.20;;;8.40;99.90;;;;;;4946898;29;20078;-62
2024/02/14 07:37:06;;;;;;;11.85;5.93;;;8.40;99.90;;;;;;4948885;29;20155;-62
2024/02/14 07:39:34;;;;;;;14.52;6.93;;;8.40;99.90;;;;;;4937711;28;20094;-62
2024/02/14 07:42:03;;;;;;;13.98;6.22;;;8.40;99.90;;;;;;4946630;29;20341;-63
2024/02/14 07:44:28;;;;;;;15.90;7.82;;;8.40;99.90;;;;;;4947258;29;20459;-62
2024/02/14 07:46:54;;;;;;;13.77;6.10;;;8.40;99.90;;;;;;4948736;29;20031;-62
2024/02/14 07:49:20;;;;;;;16.23;7.45;;;8.50;99.90;;;;;;4947727;29;20031;-63
2024/02/14 07:51:46;;;;;;;17.75;7.45;;;8.50;99.90;;;;;;4946608;28;20228;-63
2024/02/14 07:54:11;;;;;;;15.38;7.45;;;8.50;99.90;;;;;;4948086;29;20027;-63
2024/02/14 07:56:37;;;;;;;20.65;7.55;;;8.50;99.90;;;;;;4947972;29;20039;-61
2024/02/14 07:59:05;;;;;;;15.68;7.90;;;8.40;99.90;;;;;;4931099;29;20565;-63
2024/02/14 08:01:30;;;;;;;19.25;6.93;;;8.40;99.90;;;;;;4944923;29;20047;-63
2024/02/14 08:03:56;;;;;;;19.60;7.47;;;8.50;99.90;;;;;;4950502;29;20042;-63
2024/02/14 08:06:22;;;;;;;13.50;6.60;;;8.50;99.90;;;;;;4948500;29;20074;-62
2024/02/14 08:08:54;;;;;;;17.00;7.90;;;8.50;99.90;;;;;;4947490;29;20479;-62
2024/02/14 08:11:20;;;;;;;11.23;5.90;;;8.50;99.90;;;;;;4944565;29;20028;-62
2024/02/14 08:13:45;;;;;;;16.92;8.05;;;8.50;99.90;;;;;;4947560;29;20310;-62
2024/02/14 08:16:12;;;;;;;18.42;9.00;;;8.60;99.90;;;;;;4945925;29;20131;-62
2024/02/14 08:18:39;;;;;;;13.80;6.22;;;8.50;99.90;;;;;;4947368;28;20044;-62
2024/02/14 08:21:05;;;;;;;14.90;7.38;;;8.50;99.90;;;;;;4928721;29;20035;-62
2024/02/14 08:23:32;;;;;;;12.80;6.07;;;8.50;99.90;;;;;;4939992;29;20031;-63
2024/02/14 08:25:57;;;;;;;15.63;6.57;;;8.50;99.90;;;;;;4948268;29;20114;-63
2024/02/14 08:28:23;;;;;;;12.80;6.13;;;8.60;99.90;;;;;;4935607;29;20114;-63
2024/02/14 08:30:49;;;;;;;12.48;5.50;;;8.60;99.90;;;;;;4948143;29;20034;-63
2024/02/14 08:33:14;;;;;;;13.95;5.80;;;8.60;99.90;;;;;;4947215;29;20039;-63
2024/02/14 08:35:40;;;;;;;12.65;5.90;;;8.60;99.90;;;;;;4943014;29;20062;-64
2024/02/14 08:38:06;;;;;;;11.52;5.38;;;8.70;99.90;;;;;;4931024;29;20023;-64
2024/02/14 08:40:32;;;;;;;12.75;5.82;;;8.80;99.90;;;;;;4947703;29;20031;-63
2024/02/14 08:42:58;;;;;;;12.68;5.70;;;8.80;99.90;;;;;;4948261;29;20036;-63
2024/02/14 08:45:25;;;;;;;11.60;5.72;;;8.80;99.90;;;;;;4945279;29;20023;-64
2024/02/14 08:47:51;;;;;;;11.15;5.30;;;8.90;99.90;;;;;;4949879;29;20019;-64
2024/02/14 08:50:17;;;;;;;12.30;5.57;;;9.00;99.90;;;;;;4946453;29;20550;-64
2024/02/14 08:52:42;;;;;;;8.88;4.22;;;9.00;99.90;;;;;;4944690;29;20385;-64
2024/02/14 08:55:14;;;;;;;12.35;5.25;;;9.10;99.90;;;;;;4943172;29;20124;-64
2024/02/14 08:57:40;;;;;;;12.57;5.30;;;9.20;99.90;;;;;;4943563;28;20091;-63
2024/02/14 09:00:07;;;;;;;12.13;5.20;;;9.20;99.90;;;;;;4943081;29;20019;-63
2024/02/14 09:02:34;;;;;;;8.48;3.75;;;9.20;99.90;;;;;;4946354;29;20043;-64
2024/02/14 09:05:01;;;;;;;9.88;4.55;;;9.20;99.90;;;;;;4948730;28;20024;-64
2024/02/14 09:07:26;;;;;;;11.05;4.80;;;9.20;99.90;;;;;;4946131;29;20126;-63
2024/02/14 09:09:52;;;;;;;10.55;4.57;;;9.30;99.90;;;;;;4933257;29;20326;-63
2024/02/14 09:12:18;;;;;;;12.60;5.20;;;9.30;99.90;;;;;;4951167;29;20027;-63
2024/02/14 09:14:43;;;;;;;11.13;4.80;;;9.30;99.90;;;;;;4950866;29;20138;-63
2024/02/14 09:17:10;;;;;;;10.40;5.05;;;9.40;99.90;;;;;;4950775;29;20108;-64
2024/02/14 09:19:36;;;;;;;9.90;4.40;;;9.50;99.90;;;;;;4949082;28;20510;-63
2024/02/14 09:22:06;;;;;;;10.45;4.30;;;9.50;99.90;;;;;;4943921;29;20387;-65
2024/02/14 09:24:32;;;;;;;13.20;4.87;;;9.60;99.90;;;;;;4943092;29;20035;-63
2024/02/14 09:26:57;;;;;;;10.10;4.95;;;9.70;99.90;;;;;;4949698;29;20774;-63
2024/02/14 09:29:23;;;;;;;16.60;4.80;;;9.70;99.90;;;;;;4930043;29;20474;-63
2024/02/14 09:31:51;;;;;;;10.98;4.95;;;9.70;99.90;;;;;;4949507;29;20403;-64
2024/02/14 09:34:19;;;;;;;12.10;5.45;;;9.70;99.90;;;;;;4948673;29;20042;-63
2024/02/14 09:36:45;;;;;;;11.52;5.32;;;9.70;99.90;;;;;;4950102;29;20678;-63
2024/02/14 09:39:10;;;;;;;10.65;4.40;;;9.60;99.90;;;;;;4931610;29;20027;-63
2024/02/14 09:41:43;;;;;;;11.43;4.82;;;9.70;99.90;;;;;;4949312;29;20030;-63
2024/02/14 09:44:09;;;;;;;10.43;3.85;;;9.70;99.90;;;;;;4949513;29;20106;-64
2024/02/14 09:46:38;;;;;;;11.65;4.00;;;9.70;99.90;;;;;;4937384;29;20118;-63
2024/02/14 09:49:06;;;;;;;8.68;3.72;;;9.90;99.90;;;;;;4949985;29;20050;-64
2024/02/14 09:51:31;;;;;;;12.70;3.13;;;9.90;99.90;;;;;;4948213;29;20039;-63
2024/02/14 09:54:00;;;;;;;10.23;3.47;;;9.90;99.90;;;;;;4937605;29;20146;-63
2024/02/14 09:56:26;;;;;;;6.18;2.40;;;10.00;99.90;;;;;;4949985;29;20079;-64
2024/02/14 09:58:57;;;;;;;7.15;3.38;;;10.00;99.90;;;;;;4926998;29;20999;-63
2024/02/14 10:01:24;;;;;;;8.82;2.83;;;9.90;99.90;;;;;;4947568;29;20031;-64
2024/02/14 10:03:54;;;;;;;8.95;3.42;;;9.90;99.90;;;;;;4932265;29;20074;-63
2024/02/14 10:06:21;;;;;;;7.57;3.53;;;9.90;99.90;;;;;;4948287;29;20042;-64
2024/02/14 10:08:48;;;;;;;8.18;3.33;;;9.90;99.90;;;;;;4930300;29;20067;-63
2024/02/14 10:11:18;;;;;;;7.35;3.03;;;9.80;99.90;;;;;;4950419;29;20027;-63
2024/02/14 10:13:47;;;;;;;8.38;3.30;;;9.80;99.90;;;;;;4950035;29;20055;-64
2024/02/14 10:16:18;;;;;;;6.13;2.23;;;9.80;99.90;;;;;;4949488;28;20073;-63
2024/02/14 10:18:45;;;;;;;7.30;3.00;;;9.70;99.90;;;;;;4949900;28;20297;-63
2024/02/14 10:21:16;;;;;;;9.75;3.20;;;9.70;99.90;;;;;;4947844;29;20083;-64
2024/02/14 10:23:43;;;;;;;7.03;2.83;;;9.70;99.90;;;;;;4947352;29;20035;-64
2024/02/14 10:26:09;;;;;;;7.07;2.78;;;9.70;99.90;;;;;;4949209;29;20118;-63
2024/02/14 10:28:35;;;;;;;7.65;3.00;;;9.70;99.90;;;;;;4949100;29;20479;-63
2024/02/14 10:31:01;;;;;;;8.25;2.85;;;9.70;99.90;;;;;;4949132;29;20098;-63
2024/02/14 10:33:29;;;;;;;7.13;2.88;;;9.80;99.90;;;;;;4929107;29;20020;-63
2024/02/14 10:35:56;;;;;;;6.18;2.55;;;9.80;99.90;;;;;;4947676;29;20057;-63
2024/02/14 10:38:24;;;;;;;7.28;3.13;;;9.90;99.90;;;;;;4934842;29;20026;-63
2024/02/14 10:40:50;;;;;;;21.35;3.25;;;9.90;99.90;;;;;;4947155;29;20083;-63
2024/02/14 10:43:16;;;;;;;7.72;3.15;;;10.00;99.90;;;;;;4948446;29;20620;-63
2024/02/14 10:45:42;;;;;;;10.43;3.15;;;10.00;99.90;;;;;;4944704;29;20090;-63
2024/02/14 10:48:12;;;;;;;7.38;2.95;;;10.00;99.90;;;;;;4949141;29;20035;-63
2024/02/14 10:50:41;;;;;;;9.48;3.10;;;10.00;99.90;;;;;;4930199;29;20027;-63
2024/02/14 10:53:13;;;;;;;7.63;2.83;;;10.00;99.90;;;;;;4947392;29;20030;-63
2024/02/14 10:55:44;;;;;;;6.68;2.65;;;10.00;99.90;;;;;;4949578;29;21006;-63
2024/02/14 10:58:11;;;;;;;9.68;3.22;;;10.10;99.90;;;;;;4949336;29;20028;-63
2024/02/14 11:00:37;;;;;;;10.75;3.08;;;10.00;99.90;;;;;;4948768;29;20043;-63
2024/02/14 11:03:04;;;;;;;8.27;2.92;;;10.10;99.90;;;;;;4948847;29;20027;-63
2024/02/14 11:05:29;;;;;;;8.13;2.58;;;10.10;99.90;;;;;;4934257;29;20020;-63
2024/02/14 11:07:56;;;;;;;8.63;2.58;;;10.20;99.90;;;;;;4949209;29;20034;-63
2024/02/14 11:10:22;;;;;;;7.50;2.63;;;10.30;99.90;;;;;;4949224;29;20424;-63
2024/02/14 11:12:50;;;;;;;6.78;2.80;;;10.20;99.90;;;;;;4949066;29;20031;-64
2024/02/14 11:15:19;;;;;;;6.82;2.80;;;10.20;99.90;;;;;;4947116;29;20030;-62
2024/02/14 11:17:47;;;;;;;5.88;2.25;;;10.10;99.90;;;;;;4947981;29;20495;-63
2024/02/14 11:20:24;;;;;;;7.20;2.22;;;10.10;99.90;;;;;;4949451;28;20578;-63
2024/02/14 11:22:55;;;;;;;5.90;2.30;;;10.10;99.90;;;;;;4946637;29;20111;-63
2024/02/14 11:25:24;;;;;;;8.15;2.72;;;10.20;99.90;;;;;;4949251;29;20458;-63
2024/02/14 11:27:50;;;;;;;6.65;2.13;;;10.20;99.90;;;;;;4948309;28;20031;-63
2024/02/14 11:30:28;;;;;;;5.97;2.28;;;10.30;99.90;;;;;;4941452;29;20433;-63
2024/02/14 11:32:54;;;;;;;6.13;2.30;;;10.40;99.90;;;;;;4945834;29;20284;-63
2024/02/14 11:35:20;;;;;;;6.85;2.40;;;10.50;99.90;;;;;;4948841;29;20487;-63
2024/02/14 11:37:51;;;;;;;7.88;2.47;;;10.50;99.90;;;;;;4947878;29;20034;-63
2024/02/14 11:40:20;;;;;;;7.03;2.45;;;10.50;99.90;;;;;;4949377;29;20110;-63
2024/02/14 11:42:47;;;;;;;6.35;2.15;;;10.50;99.90;;;;;;4948178;29;20506;-62
2024/02/14 11:45:13;;;;;;;8.88;2.53;;;10.60;99.90;;;;;;4947187;29;20454;-63
2024/02/14 11:47:39;;;;;;;9.00;2.80;;;10.60;99.90;;;;;;4948084;29;20267;-63
2024/02/14 11:50:05;;;;;;;5.32;1.83;;;10.60;99.90;;;;;;4948461;28;20486;-63
2024/02/14 11:52:32;;;;;;;8.00;2.47;;;10.70;99.90;;;;;;4930271;29;20043;-63
2024/02/14 11:54:59;;;;;;;6.38;2.38;;;10.80;99.90;;;;;;4948448;29;20431;-62
2024/02/14 11:57:26;;;;;;;5.13;2.25;;;10.90;99.90;;;;;;4941661;28;20446;-63
2024/02/14 11:59:53;;;;;;;3.88;1.65;;;10.90;99.90;;;;;;4944680;29;20098;-63
2024/02/14 12:02:19;;;;;;;7.57;2.35;;;10.90;99.90;;;;;;4945284;29;20028;-63
2024/02/14 12:04:50;;;;;;;5.15;1.90;;;10.80;99.90;;;;;;4944871;29;20031;-62
2024/02/14 12:07:15;;;;;;;;;;;10.80;99.90;;;;;;4946131;29;20114;-63
2024/02/14 12:09:42;;;;;;;6.22;2.30;;;10.70;99.90;;;;;;4939312;29;20110;-63
2024/02/14 12:12:08;;;;;;;9.13;2.40;;;10.70;99.90;;;;;;4937570;28;20112;-63
2024/02/14 12:14:34;;;;;;;7.03;2.22;;;10.70;99.90;;;;;;4942841;28;20043;-63
2024/02/14 12:17:02;;;;;;;6.20;2.63;;;10.60;99.90;;;;;;4946337;29;20022;-63
2024/02/14 12:19:28;;;;;;;7.60;2.78;;;10.60;99.90;;;;;;4946646;28;20137;-63
2024/02/14 12:22:01;;;;;;;11.23;3.00;;;10.70;99.90;;;;;;4929245;29;20114;-63
2024/02/14 12:24:28;;;;;;;8.63;3.28;;;10.70;99.90;;;;;;4947054;29;20027;-62
2024/02/14 12:26:54;;;;;;;6.85;3.08;;;10.90;99.90;;;;;;4946256;29;20053;-63
2024/02/14 12:29:20;;;;;;;6.95;2.85;;;11.10;99.90;;;;;;4947306;29;20435;-62
2024/02/14 12:31:46;;;;;;;8.32;3.08;;;11.30;99.90;;;;;;4948708;29;20031;-62
2024/02/14 12:34:12;;;;;;;9.68;3.35;;;11.30;99.90;;;;;;4947672;29;20082;-62
2024/02/14 12:36:38;;;;;;;9.13;3.33;;;11.30;99.90;;;;;;4927250;29;20388;-62
2024/02/14 12:39:04;;;;;;;8.73;3.22;;;11.30;99.90;;;;;;4946343;28;20035;-63
2024/02/14 12:41:31;;;;;;;6.10;2.65;;;11.30;99.90;;;;;;4951020;29;20027;-62
2024/02/14 12:43:58;;;;;;;9.00;3.80;;;11.30;99.90;;;;;;4951001;29;20182;-62
2024/02/14 12:46:23;;;;;;;8.50;2.90;;;11.30;99.90;;;;;;4951133;29;20133;-62
2024/02/14 12:48:49;;;;;;;9.13;3.72;;;11.40;99.90;;;;;;4950992;29;20106;-62